createdAt,value
2017-11-10T00:00:29.947Z,6.83
2017-11-10T00:02:58.710Z,6.20
2017-11-10T00:05:27.342Z,7.20
2017-11-10T00:07:56.804Z,7.10
2017-11-10T00:10:25.428Z,8.40
2017-11-10T00:12:54.799Z,8.40
2017-11-10T00:15:23.460Z,8.90
2017-11-10T00:17:52.099Z,8.73
2017-11-10T00:20:20.748Z,9.13
2017-11-10T00:22:49.346Z,10.03
2017-11-10T00:25:18.135Z,9.00
2017-11-10T00:27:46.730Z,7.63
2017-11-10T00:30:15.338Z,8.37
2017-11-10T00:32:44.788Z,6.47
2017-11-10T00:35:13.409Z,6.30
2017-11-10T00:37:42.838Z,5.20
2017-11-10T00:40:11.480Z,4.90
2017-11-10T00:42:40.120Z,4.23
2017-11-10T00:45:08.809Z,4.77
2017-11-10T00:47:37.467Z,4.43
2017-11-10T00:50:06.086Z,3.90
2017-11-10T00:52:34.688Z,4.60
2017-11-10T00:55:04.158Z,4.77
2017-11-10T00:57:33.137Z,4.87
2017-11-10T01:00:02.601Z,4.10
2017-11-10T01:02:31.284Z,4.73
2017-11-10T01:05:00.784Z,4.17
2017-11-10T01:07:29.409Z,4.70
2017-11-10T01:09:58.060Z,4.37
2017-11-10T01:12:26.776Z,4.30
2017-11-10T01:14:55.556Z,3.43
2017-11-10T01:17:25.110Z,4.60
2017-11-10T01:19:53.890Z,5.07
2017-11-10T01:22:23.841Z,3.80
2017-11-10T01:24:52.510Z,4.00
2017-11-10T01:27:21.196Z,3.70
2017-11-10T01:29:49.853Z,3.67
2017-11-10T01:32:18.548Z,3.60
2017-11-10T01:34:47.273Z,3.70
2017-11-10T01:37:16.005Z,3.33
2017-11-10T01:39:44.778Z,3.37
2017-11-10T01:42:13.572Z,3.30
2017-11-10T01:44:42.363Z,3.27
2017-11-10T01:47:11.251Z,3.50
2017-11-10T01:49:39.997Z,2.87
2017-11-10T01:52:08.686Z,2.87
2017-11-10T01:54:37.451Z,2.90
2017-11-10T01:57:06.183Z,3.60
2017-11-10T01:59:35.094Z,3.27
2017-11-10T02:02:04.072Z,4.00
2017-11-10T02:04:33.057Z,3.33
2017-11-10T02:07:03.389Z,4.07
2017-11-10T02:09:32.260Z,5.20
2017-11-10T02:12:00.942Z,4.10
2017-11-10T02:14:30.584Z,4.43
2017-11-10T02:17:00.287Z,4.50
2017-11-10T02:19:29.677Z,3.00
2017-11-10T02:21:59.627Z,3.10
2017-11-10T02:24:28.427Z,3.03
2017-11-10T02:26:57.148Z,3.90
2017-11-10T02:29:25.881Z,3.90
2017-11-10T02:31:55.907Z,3.63
2017-11-10T02:34:24.664Z,3.40
2017-11-10T02:36:53.617Z,3.37
2017-11-10T02:39:30.853Z,3.37
2017-11-10T02:42:00.551Z,3.50
2017-11-10T02:44:30.011Z,3.63
2017-11-10T02:46:58.582Z,3.57
2017-11-10T02:49:28.093Z,5.20
2017-11-10T02:51:56.780Z,3.83
2017-11-10T02:54:25.460Z,4.23
2017-11-10T02:56:54.115Z,3.33
2017-11-10T02:59:22.803Z,3.30
2017-11-10T03:01:51.461Z,3.23
2017-11-10T03:04:20.165Z,3.67
2017-11-10T03:06:48.851Z,3.40
2017-11-10T03:09:17.492Z,3.10
2017-11-10T03:11:46.215Z,3.70
2017-11-10T03:14:14.953Z,3.70
2017-11-10T03:16:43.689Z,3.60
2017-11-10T03:19:12.345Z,3.30
2017-11-10T03:21:41.088Z,3.60
2017-11-10T03:24:09.788Z,2.97
2017-11-10T03:26:39.267Z,3.30
2017-11-10T03:29:07.893Z,3.40
2017-11-10T03:31:36.564Z,3.50
2017-11-10T03:34:05.225Z,3.20
2017-11-10T03:36:33.948Z,3.53
2017-11-10T03:39:02.634Z,3.53
2017-11-10T03:41:32.077Z,3.33
2017-11-10T03:44:00.670Z,4.17
2017-11-10T03:46:29.383Z,3.90
2017-11-10T03:48:58.034Z,4.07
2017-11-10T03:51:26.886Z,3.80
2017-11-10T03:53:56.298Z,3.40
2017-11-10T03:56:24.950Z,3.40
2017-11-10T03:58:53.528Z,3.40
2017-11-10T04:01:22.223Z,3.43
2017-11-10T04:03:51.707Z,4.20
2017-11-10T04:06:20.390Z,4.17
2017-11-10T04:08:49.020Z,4.10
2017-11-10T04:11:18.461Z,3.83
2017-11-10T04:13:47.679Z,4.83
2017-11-10T04:16:16.344Z,4.00
2017-11-10T04:18:44.962Z,4.13
2017-11-10T04:21:13.636Z,3.80
2017-11-10T04:23:42.315Z,5.90
2017-11-10T04:26:11.085Z,4.20
2017-11-10T04:28:39.878Z,4.07
2017-11-10T04:31:08.477Z,3.83
2017-11-10T04:33:37.136Z,4.03
2017-11-10T04:36:05.814Z,4.80
2017-11-10T04:38:34.498Z,4.40
2017-11-10T04:41:03.172Z,3.93
2017-11-10T04:43:31.811Z,4.30
2017-11-10T04:46:00.499Z,4.87
2017-11-10T04:48:29.918Z,4.20
2017-11-10T04:50:58.573Z,5.00
2017-11-10T04:53:27.212Z,5.60
2017-11-10T04:55:56.615Z,4.70
2017-11-10T04:58:25.305Z,5.40
2017-11-10T05:00:53.929Z,5.20
2017-11-10T05:03:22.635Z,5.60
2017-11-10T05:05:51.408Z,5.43
2017-11-10T05:08:20.290Z,4.97
2017-11-10T05:10:49.280Z,4.93
2017-11-10T05:13:17.934Z,5.50
2017-11-10T05:15:47.377Z,4.80
2017-11-10T05:18:16.066Z,5.17
2017-11-10T05:20:44.826Z,4.40
2017-11-10T05:23:14.245Z,5.50
2017-11-10T05:25:42.942Z,5.10
2017-11-10T05:28:11.628Z,6.30
2017-11-10T05:30:40.277Z,5.87
2017-11-10T05:33:09.011Z,6.97
2017-11-10T05:35:37.786Z,4.60
2017-11-10T05:38:06.481Z,4.63
2017-11-10T05:40:36.034Z,4.10
2017-11-10T05:43:04.740Z,5.10
2017-11-10T05:45:33.444Z,5.07
2017-11-10T05:48:02.152Z,5.37
2017-11-10T05:50:30.862Z,4.40
2017-11-10T05:52:59.458Z,4.93
2017-11-10T05:55:28.184Z,4.57
2017-11-10T05:57:56.846Z,4.70
2017-11-10T06:00:25.616Z,4.93
2017-11-10T06:02:54.395Z,4.90
2017-11-10T06:05:23.917Z,4.37
2017-11-10T06:07:52.593Z,4.63
2017-11-10T06:10:22.036Z,14.00
2017-11-10T06:12:50.647Z,4.63
2017-11-10T06:15:19.279Z,4.73
2017-11-10T06:17:47.991Z,4.13
2017-11-10T06:20:16.663Z,4.70
2017-11-10T06:22:45.337Z,4.40
2017-11-10T06:25:14.747Z,5.37
2017-11-10T06:27:43.437Z,5.37
2017-11-10T06:30:12.065Z,5.63
2017-11-10T06:32:40.747Z,6.93
2017-11-10T06:35:09.413Z,4.97
2017-11-10T06:37:38.070Z,5.50
2017-11-10T06:40:06.782Z,6.27
2017-11-10T06:42:35.459Z,6.40
2017-11-10T06:45:04.133Z,5.93
2017-11-10T06:47:32.864Z,6.87
2017-11-10T06:50:01.509Z,9.53
2017-11-10T06:52:30.123Z,5.73
2017-11-10T06:54:58.813Z,6.90
2017-11-10T06:57:27.448Z,6.57
2017-11-10T06:59:56.145Z,7.23
2017-11-10T07:02:24.871Z,5.93
2017-11-10T07:04:53.627Z,6.60
2017-11-10T07:07:22.226Z,6.53
2017-11-10T07:09:51.832Z,6.73
2017-11-10T07:12:20.425Z,6.07
2017-11-10T07:14:49.181Z,6.60
2017-11-10T07:17:17.890Z,13.27
2017-11-10T07:19:46.699Z,12.20
2017-11-10T07:22:15.499Z,8.10
2017-11-10T07:24:44.906Z,8.63
2017-11-10T07:27:30.545Z,6.30
2017-11-10T07:30:00.397Z,6.10
2017-11-10T07:32:29.007Z,5.67
2017-11-10T07:34:57.608Z,5.67
2017-11-10T07:46:24.154Z,6.10
2017-11-10T07:48:52.866Z,5.67
2017-11-10T07:51:21.528Z,8.17
2017-11-10T07:53:50.135Z,10.73
2017-11-10T07:56:18.722Z,5.13
2017-11-10T07:58:47.480Z,8.67
2017-11-10T08:01:16.332Z,5.17
2017-11-10T08:03:44.934Z,5.87
2017-11-10T08:06:13.542Z,5.53
2017-11-10T08:08:42.186Z,10.57
2017-11-10T08:11:10.781Z,7.20
2017-11-10T08:13:39.443Z,5.07
2017-11-10T08:16:08.945Z,6.50
2017-11-10T08:18:37.580Z,6.23
2017-11-10T08:21:06.378Z,6.70
2017-11-10T08:23:35.036Z,5.60
2017-11-10T08:26:03.727Z,11.97
2017-11-10T08:28:32.358Z,5.43
2017-11-10T08:31:01.128Z,5.07
2017-11-10T08:33:29.889Z,4.70
2017-11-10T08:35:58.592Z,5.67
2017-11-10T08:38:27.274Z,5.37
2017-11-10T08:40:55.956Z,5.80
2017-11-10T08:43:24.594Z,5.70
2017-11-10T08:45:53.274Z,5.30
2017-11-10T08:48:21.912Z,7.80
2017-11-10T08:50:50.516Z,8.30
2017-11-10T08:53:19.173Z,4.50
2017-11-10T08:55:47.832Z,5.80
2017-11-10T08:58:16.517Z,10.10
2017-11-10T09:00:45.914Z,6.07
2017-11-10T09:03:15.317Z,8.07
2017-11-10T09:05:44.799Z,5.60
2017-11-10T09:08:14.426Z,4.97
2017-11-10T09:10:43.104Z,6.33
2017-11-10T09:13:12.493Z,4.50
2017-11-10T09:15:41.199Z,4.87
2017-11-10T09:18:09.889Z,5.30
2017-11-10T09:20:38.586Z,6.30
2017-11-10T09:23:08.079Z,4.63
2017-11-10T09:25:36.839Z,5.30
2017-11-10T09:31:17.504Z,27.33
2017-11-10T09:34:01.056Z,5.80
2017-11-10T09:36:47.255Z,5.10
2017-11-10T09:42:25.575Z,5.77
2017-11-10T09:45:09.156Z,4.97
2017-11-10T09:50:45.496Z,4.37
2017-11-10T09:53:16.599Z,5.13
2017-11-10T09:55:50.805Z,6.73
2017-11-10T10:01:43.121Z,4.80
2017-11-10T10:04:17.335Z,6.60
2017-11-10T10:06:52.575Z,4.10
2017-11-10T10:09:26.677Z,3.80
2017-11-10T10:11:57.967Z,4.27
2017-11-10T10:14:32.806Z,5.30
2017-11-10T10:17:05.459Z,7.37
2017-11-10T10:19:36.175Z,5.83
2017-11-10T10:22:07.640Z,3.90
2017-11-10T10:24:36.302Z,4.60
2017-11-10T10:27:04.960Z,4.37
2017-11-10T10:29:33.889Z,6.17
2017-11-10T10:32:02.560Z,8.37
2017-11-10T10:34:31.349Z,11.20
2017-11-10T10:37:00.120Z,9.20
2017-11-10T10:39:28.843Z,8.80
2017-11-10T10:41:57.537Z,5.67
2017-11-10T10:44:26.225Z,7.77
2017-11-10T10:46:55.721Z,5.07
2017-11-10T10:49:24.299Z,4.60
2017-11-10T10:51:52.940Z,12.90
2017-11-10T10:54:22.277Z,5.13
2017-11-10T10:56:50.978Z,7.37
2017-11-10T10:59:19.724Z,6.80
2017-11-10T11:01:48.317Z,8.17
2017-11-10T11:04:17.138Z,4.87
2017-11-10T11:06:45.835Z,4.87
2017-11-10T11:09:14.577Z,5.80
2017-11-10T11:11:43.219Z,4.90
2017-11-10T11:14:12.689Z,5.47
2017-11-10T11:16:41.320Z,6.40
2017-11-10T11:19:09.919Z,5.73
2017-11-10T11:21:39.313Z,8.17
2017-11-10T11:24:07.958Z,6.07
2017-11-10T11:26:36.726Z,5.00
2017-11-10T11:29:06.249Z,5.47
2017-11-10T11:31:34.856Z,7.40
2017-11-10T11:34:03.639Z,5.70
2017-11-10T11:36:32.855Z,5.60
2017-11-10T11:39:01.579Z,6.33
2017-11-10T11:41:30.267Z,4.60
2017-11-10T11:43:58.900Z,5.63
2017-11-10T11:46:27.504Z,4.57
2017-11-10T11:48:56.141Z,6.77
2017-11-10T11:51:24.816Z,4.57
2017-11-10T11:53:53.483Z,4.07
2017-11-10T11:56:22.141Z,4.43
2017-11-10T11:58:51.586Z,3.80
2017-11-10T12:01:20.499Z,6.90
2017-11-10T12:03:49.087Z,6.90
2017-11-10T12:06:17.754Z,4.07
2017-11-10T12:08:46.358Z,3.80
2017-11-10T12:11:15.626Z,3.97
2017-11-10T12:13:45.177Z,4.73
2017-11-10T12:16:14.057Z,4.40
2017-11-10T12:18:42.816Z,3.50
2017-11-10T12:21:11.628Z,4.07
2017-11-10T12:23:41.154Z,4.67
2017-11-10T12:26:09.988Z,3.90
2017-11-10T12:28:38.676Z,3.43
2017-11-10T12:31:07.362Z,3.90
2017-11-10T12:33:36.041Z,6.80
2017-11-10T12:36:04.850Z,8.87
2017-11-10T12:38:33.536Z,4.70
2017-11-10T12:41:02.165Z,2.93
2017-11-10T12:43:30.852Z,3.63
2017-11-10T12:46:01.063Z,3.43
2017-11-10T12:48:29.696Z,2.90
2017-11-10T12:50:58.551Z,3.13
2017-11-10T12:53:28.054Z,4.23
2017-11-10T12:55:57.619Z,7.17
2017-11-10T12:58:26.310Z,4.60
2017-11-10T13:00:54.931Z,4.73
2017-11-10T13:03:24.441Z,5.27
2017-11-10T13:05:53.981Z,6.83
2017-11-10T13:08:23.343Z,13.50
2017-11-10T13:10:51.984Z,7.07
2017-11-10T13:13:20.704Z,5.70
2017-11-10T13:15:49.303Z,5.03
2017-11-10T13:18:18.009Z,6.97
2017-11-10T13:20:47.538Z,6.27
2017-11-10T13:23:16.227Z,5.73
2017-11-10T13:25:44.804Z,6.90
2017-11-10T13:28:14.193Z,5.90
2017-11-10T13:30:42.840Z,6.40
2017-11-10T13:33:11.624Z,8.70
2017-11-10T13:35:40.314Z,6.90
2017-11-10T13:38:09.091Z,6.17
2017-11-10T13:40:37.721Z,7.10
2017-11-10T13:43:06.449Z,6.93
2017-11-10T13:45:35.127Z,6.80
2017-11-10T13:48:03.884Z,6.27
2017-11-10T13:50:32.625Z,8.30
2017-11-10T13:53:01.235Z,8.57
2017-11-10T13:55:29.994Z,8.20
2017-11-10T13:57:58.922Z,8.00
2017-11-10T14:00:28.124Z,13.30
2017-11-10T14:02:57.078Z,7.77
2017-11-10T14:05:26.138Z,8.30
2017-11-10T14:07:55.027Z,8.50
2017-11-10T14:10:23.808Z,8.90
2017-11-10T14:12:52.727Z,9.30
2017-11-10T14:15:21.548Z,8.50
2017-11-10T14:17:50.381Z,9.47
2017-11-10T14:20:20.156Z,8.83
2017-11-10T14:22:49.780Z,10.10
2017-11-10T14:25:18.594Z,7.90
2017-11-10T14:27:47.408Z,9.33
2017-11-10T14:30:16.016Z,10.90
2017-11-10T14:32:44.878Z,8.30
2017-11-10T14:35:13.721Z,8.47
2017-11-10T14:37:43.362Z,8.30
2017-11-10T14:40:12.084Z,9.87
2017-11-10T14:42:41.083Z,8.20
2017-11-10T14:45:10.175Z,9.20
2017-11-10T14:47:39.076Z,9.30
2017-11-10T14:50:08.658Z,9.03
2017-11-10T14:52:37.344Z,10.90
2017-11-10T14:55:06.138Z,9.77
2017-11-10T14:57:34.894Z,10.57
2017-11-10T15:00:03.947Z,8.80
2017-11-10T15:02:32.687Z,10.03
2017-11-10T15:05:01.549Z,9.10
2017-11-10T15:07:31.082Z,8.37
2017-11-10T15:09:59.795Z,8.10
2017-11-10T15:12:28.485Z,7.80
2017-11-10T15:14:57.128Z,8.43
2017-11-10T15:17:26.664Z,7.87
2017-11-10T15:19:56.668Z,8.80
2017-11-10T15:22:25.446Z,9.40
2017-11-10T15:24:54.114Z,9.40
2017-11-10T15:27:22.955Z,8.87
2017-11-10T15:29:51.745Z,9.90
2017-11-10T15:32:20.399Z,9.43
2017-11-10T15:34:49.269Z,8.50
2017-11-10T15:37:18.001Z,11.00
2017-11-10T15:39:46.760Z,8.50
2017-11-10T15:42:15.629Z,11.10
2017-11-10T15:44:44.362Z,9.73
2017-11-10T15:47:13.175Z,9.03
2017-11-10T15:49:42.790Z,9.85
2017-11-10T15:52:11.629Z,8.93
2017-11-10T15:54:40.298Z,10.20
2017-11-10T15:57:09.852Z,8.83
2017-11-10T15:59:38.758Z,8.20
2017-11-10T16:02:07.662Z,9.53
2017-11-10T16:04:37.192Z,6.50
2017-11-10T16:07:06.585Z,8.20
2017-11-10T16:09:35.242Z,7.60
2017-11-10T16:12:03.948Z,6.53
2017-11-10T16:14:32.698Z,7.00
2017-11-10T16:17:01.404Z,6.97
2017-11-10T16:19:30.168Z,15.57
2017-11-10T16:21:58.843Z,8.50
2017-11-10T16:24:27.517Z,8.97
2017-11-10T16:26:56.310Z,8.63
2017-11-10T16:29:24.931Z,8.80
2017-11-10T16:31:53.695Z,7.63
2017-11-10T16:34:22.572Z,9.07
2017-11-10T16:36:51.318Z,8.00
2017-11-10T16:39:20.072Z,6.70
2017-11-10T16:41:48.954Z,6.43
2017-11-10T16:44:17.810Z,7.10
2017-11-10T16:46:47.332Z,6.03
2017-11-10T16:49:16.052Z,5.40
2017-11-10T16:51:44.992Z,6.03
2017-11-10T16:54:13.755Z,5.83
2017-11-10T16:56:42.572Z,5.50
2017-11-10T16:59:12.027Z,5.63
2017-11-10T17:01:40.825Z,8.37
2017-11-10T17:04:10.428Z,7.33
2017-11-10T17:06:39.181Z,6.40
2017-11-10T17:09:07.895Z,6.33
2017-11-10T17:11:36.672Z,5.17
2017-11-10T17:14:06.206Z,5.97
2017-11-10T17:16:35.082Z,10.00
2017-11-10T17:19:03.987Z,7.50
2017-11-10T17:21:32.640Z,7.10
2017-11-10T17:24:01.422Z,6.20
2017-11-10T17:26:30.931Z,6.77
2017-11-10T17:28:59.516Z,6.90
2017-11-10T17:31:28.145Z,6.90
2017-11-10T17:33:56.838Z,5.70
2017-11-10T17:36:25.495Z,9.17
2017-11-10T17:38:54.158Z,5.60
2017-11-10T17:41:22.867Z,6.10
2017-11-10T17:43:51.918Z,6.63
2017-11-10T17:46:20.749Z,6.10
2017-11-10T17:48:49.419Z,4.97
2017-11-10T17:51:18.112Z,4.87
2017-11-10T17:53:46.894Z,5.13
2017-11-10T17:56:15.606Z,8.17
2017-11-10T17:58:44.282Z,5.50
2017-11-10T18:01:12.899Z,5.10
2017-11-10T18:03:41.625Z,4.67
2017-11-10T18:06:10.292Z,6.27
2017-11-10T18:08:38.999Z,5.57
2017-11-10T18:11:07.779Z,5.47
2017-11-10T18:13:36.418Z,4.93
2017-11-10T18:16:05.049Z,5.30
2017-11-10T18:18:33.773Z,5.47
2017-11-10T18:21:02.512Z,5.80
2017-11-10T18:23:31.199Z,5.70
2017-11-10T18:25:59.856Z,5.77
2017-11-10T18:28:28.513Z,5.55
2017-11-10T18:30:57.311Z,5.90
2017-11-10T18:33:26.115Z,6.30
2017-11-10T18:35:54.888Z,6.80
2017-11-10T18:38:23.613Z,9.10
2017-11-10T18:40:52.445Z,6.60
2017-11-10T18:43:21.109Z,6.20
2017-11-10T18:45:49.731Z,5.80
2017-11-10T18:48:24.215Z,5.35
2017-11-10T18:50:52.932Z,7.90
2017-11-10T18:53:26.448Z,7.03
2017-11-10T18:55:55.097Z,6.67
2017-11-10T18:58:23.741Z,5.97
2017-11-10T19:00:52.458Z,6.17
2017-11-10T19:03:21.089Z,7.27
2017-11-10T19:05:49.871Z,7.30
2017-11-10T19:08:18.769Z,7.50
2017-11-10T19:10:48.160Z,6.70
2017-11-10T19:13:16.744Z,8.20
2017-11-10T19:15:45.349Z,7.97
2017-11-10T19:18:14.026Z,6.57
2017-11-10T19:20:43.789Z,7.53
2017-11-10T19:23:12.456Z,7.77
2017-11-10T19:25:41.207Z,7.20
2017-11-10T19:28:09.836Z,6.67
2017-11-10T19:30:38.484Z,7.20
2017-11-10T19:33:07.268Z,6.27
2017-11-10T19:35:36.840Z,7.50
2017-11-10T19:38:05.494Z,8.27
2017-11-10T19:40:34.137Z,8.80
2017-11-10T19:43:02.700Z,7.67
2017-11-10T19:45:31.373Z,9.70
2017-11-10T19:48:02.511Z,11.80
2017-11-10T19:50:31.210Z,9.93
2017-11-10T19:52:59.832Z,10.20
2017-11-10T19:55:28.455Z,9.20
2017-11-10T19:57:57.097Z,10.07
2017-11-10T20:00:27.301Z,8.13
2017-11-10T20:02:56.307Z,11.23
2017-11-10T20:05:25.880Z,8.73
2017-11-10T20:07:55.281Z,9.63
2017-11-10T20:10:23.868Z,13.97
2017-11-10T20:12:53.267Z,11.40
2017-11-10T20:15:21.867Z,10.60
2017-11-10T20:17:50.527Z,10.67
2017-11-10T20:20:20.003Z,10.40
2017-11-10T20:22:48.612Z,12.90
2017-11-10T20:25:17.258Z,12.33
2017-11-10T20:27:45.995Z,11.23
2017-11-10T20:30:14.615Z,12.73
2017-11-10T20:32:43.221Z,12.00
2017-11-10T20:35:12.040Z,12.13
2017-11-10T20:37:40.861Z,13.57
2017-11-10T20:40:09.572Z,11.67
2017-11-10T20:42:38.196Z,11.20
2017-11-10T20:45:10.696Z,13.80
2017-11-10T20:47:39.473Z,14.93
2017-11-10T20:50:08.156Z,12.30
2017-11-10T20:52:36.795Z,13.90
2017-11-10T20:55:05.599Z,13.63
2017-11-10T20:57:34.219Z,12.67
2017-11-10T21:00:02.959Z,11.40
2017-11-10T21:02:31.720Z,11.43
2017-11-10T21:05:00.478Z,15.10
2017-11-10T21:07:29.144Z,11.53
2017-11-10T21:09:59.936Z,11.97
2017-11-10T21:12:28.558Z,14.03
2017-11-10T21:14:57.228Z,14.20
2017-11-10T21:17:25.935Z,12.70
2017-11-10T21:19:54.571Z,14.50
2017-11-10T21:22:23.234Z,14.07
2017-11-10T21:24:52.020Z,13.90
2017-11-10T21:27:20.727Z,17.43
2017-11-10T21:29:49.350Z,11.50
2017-11-10T21:32:18.120Z,13.03
2017-11-10T21:34:46.720Z,13.50
2017-11-10T21:37:15.383Z,10.87
2017-11-10T21:39:44.068Z,11.17
2017-11-10T21:42:12.767Z,9.70
2017-11-10T21:44:41.392Z,10.87
2017-11-10T21:47:10.778Z,11.77
2017-11-10T21:49:39.413Z,11.80
2017-11-10T21:52:08.052Z,11.00
2017-11-10T21:54:36.849Z,14.10
2017-11-10T21:57:05.621Z,14.30
2017-11-10T21:59:34.218Z,16.80
2017-11-10T22:02:02.935Z,15.63
2017-11-10T22:04:31.551Z,12.57
2017-11-10T22:07:00.173Z,17.17
2017-11-10T22:09:29.593Z,15.43
2017-11-10T22:11:58.329Z,15.67
2017-11-10T22:14:26.922Z,11.30
2017-11-10T22:16:55.560Z,28.40
2017-11-10T22:19:24.922Z,10.90
2017-11-10T22:21:53.617Z,10.97
2017-11-10T22:24:22.429Z,9.87
2017-11-10T22:26:51.777Z,8.60
2017-11-10T22:29:20.376Z,8.10
2017-11-10T22:31:49.002Z,7.40
2017-11-10T22:34:18.369Z,7.07
2017-11-10T22:36:46.953Z,8.13
2017-11-10T22:39:15.554Z,8.70
2017-11-10T22:41:44.203Z,8.50
2017-11-10T22:44:12.877Z,9.33
2017-11-10T22:46:42.234Z,9.77
2017-11-10T22:49:10.882Z,9.30
2017-11-10T22:51:39.519Z,7.47
2017-11-10T22:54:08.185Z,6.20
2017-11-10T22:56:36.954Z,6.40
2017-11-10T22:59:07.474Z,9.07
2017-11-10T23:01:36.957Z,7.07
2017-11-10T23:04:05.564Z,6.80
2017-11-10T23:06:34.340Z,8.47
2017-11-10T23:09:03.012Z,6.93
2017-11-10T23:11:31.741Z,6.20
2017-11-10T23:14:01.174Z,6.37
2017-11-10T23:16:29.976Z,8.03
2017-11-10T23:18:58.776Z,7.20
2017-11-10T23:21:27.391Z,11.17
2017-11-10T23:23:56.161Z,8.10
2017-11-10T23:26:25.553Z,10.50
2017-11-10T23:28:54.385Z,6.30
2017-11-10T23:31:23.258Z,5.67
2017-11-10T23:33:52.010Z,6.80
2017-11-10T23:36:20.753Z,5.90
2017-11-10T23:38:49.482Z,5.73
2017-11-10T23:41:19.010Z,5.60
2017-11-10T23:43:47.638Z,5.90
2017-11-10T23:46:16.357Z,5.10
2017-11-10T23:48:45.385Z,5.90
2017-11-10T23:51:19.432Z,5.73
2017-11-10T23:53:48.498Z,5.70
2017-11-10T23:56:17.229Z,10.33
2017-11-10T23:58:45.934Z,6.30
